Time;durP1;ratioP1;P1;durP2;ratioP2;P2;SDS_P1;SDS_P2;PMS_P1;PMS_P2;Temp;Humidity;BMP_temperature;BMP_pressure;BME280_temperature;BME280_humidity;BME280_pressure;Samples;Min_cycle;Max_cycle;Signal;HPM_P1;HPM_P2
2022/06/16 00:00:14;;;;;;;1.47;1.37;;;;;;;20.37;76.73;95476.00;4353112;32;20185;-61
2022/06/16 00:02:43;;;;;;;1.27;1.27;;;;;;;20.36;76.66;95479.03;4342435;32;20191;-61
2022/06/16 00:05:11;;;;;;;1.67;1.60;;;;;;;20.34;76.97;95479.41;4345685;32;20247;-61
2022/06/16 00:07:37;;;;;;;1.83;1.77;;;;;;;20.41;76.11;95474.16;4359356;32;20234;-62
2022/06/16 00:10:04;;;;;;;2.03;1.93;;;;;;;20.40;76.01;95469.12;4358964;32;20266;-62
2022/06/16 00:12:30;;;;;;;1.47;1.47;;;;;;;20.39;76.02;95462.97;4329392;32;20232;-61
2022/06/16 00:14:56;;;;;;;1.73;1.63;;;;;;;20.40;75.89;95466.44;4358810;32;20192;-61
2022/06/16 00:17:21;;;;;;;1.37;1.37;;;;;;;20.43;75.19;95465.75;4344203;32;20229;-62
2022/06/16 00:19:47;;;;;;;1.33;1.23;;;;;;;20.42;75.49;95462.25;4361888;32;20263;-61
2022/06/16 00:22:12;;;;;;;1.20;1.20;;;;;;;20.48;75.04;95460.84;4359868;32;20188;-61
2022/06/16 00:24:38;;;;;;;3.33;2.13;;;;;;;20.38;74.74;95464.09;4343976;32;20188;-61
2022/06/16 00:27:04;;;;;;;1.10;1.10;;;;;;;20.34;75.03;95462.44;4343942;32;20250;-61
2022/06/16 00:29:30;;;;;;;1.23;1.23;;;;;;;20.38;74.69;95458.69;4344390;32;20209;-61
2022/06/16 00:31:55;;;;;;;1.57;1.57;;;;;;;20.33;74.67;95461.66;4353120;32;20212;-62
2022/06/16 00:34:21;;;;;;;1.57;1.57;;;;;;;20.22;75.74;95461.41;4357222;32;20302;-61
2022/06/16 00:36:46;;;;;;;2.40;2.30;;;;;;;20.22;75.82;95466.81;4362040;32;20208;-62
2022/06/16 00:39:12;;;;;;;1.33;1.33;;;;;;;20.23;75.40;95464.88;4351095;32;20296;-62
2022/06/16 00:41:39;;;;;;;1.27;1.27;;;;;;;20.31;75.20;95469.31;4359278;32;20189;-62
2022/06/16 00:44:37;;;;;;;1.60;1.50;;;;;;;20.19;75.73;95466.72;4348920;32;20184;-62
2022/06/16 00:47:03;;;;;;;1.40;1.40;;;;;;;20.20;75.82;95473.66;4336475;32;20281;-63
2022/06/16 00:49:28;;;;;;;1.50;1.47;;;;;;;20.13;75.55;95462.75;4362218;32;20201;-62
2022/06/16 00:52:02;;;;;;;7.70;1.73;;;;;;;20.17;76.28;95463.59;4354472;32;20204;-62
2022/06/16 00:54:34;;;;;;;1.17;1.17;;;;;;;20.18;75.84;95473.22;4342620;32;20208;-63
2022/06/16 00:57:08;;;;;;;5.30;2.10;;;;;;;20.09;76.46;95465.34;4364801;32;20212;-62
2022/06/16 00:59:36;;;;;;;1.30;0.93;;;;;;;20.12;76.41;95467.34;4346880;32;20193;-62
2022/06/16 01:02:03;;;;;;;1.23;1.23;;;;;;;20.11;76.22;95468.50;4319180;32;20251;-63
2022/06/16 01:07:15;;;;;;;1.37;1.13;;;;;;;20.05;76.68;95471.78;4338210;32;20232;-62
2022/06/16 01:09:43;;;;;;;1.53;1.53;;;;;;;20.11;76.59;95467.72;4352670;32;20193;-62
2022/06/16 01:15:39;;;;;;;1.60;1.50;;;;;;;20.11;76.12;95473.09;4330992;32;20211;-62
2022/06/16 01:18:17;;;;;;;1.27;1.27;;;;;;;20.05;76.06;95475.25;4357704;32;20244;-62
2022/06/16 01:20:54;;;;;;;1.10;1.10;;;;;;;20.13;75.40;95465.44;4352353;32;20256;-62
2022/06/16 01:23:31;;;;;;;0.87;0.87;;;;;;;20.12;75.77;95463.88;4347301;32;20189;-63
2022/06/16 01:26:32;;;;;;;1.10;1.10;;;;;;;19.95;75.63;95456.97;4353591;32;20201;-62
2022/06/16 01:29:05;;;;;;;1.30;1.30;;;;;;;19.83;75.26;95459.72;4348600;32;20202;-62
2022/06/16 01:31:51;;;;;;;1.20;1.20;;;;;;;19.93;75.55;95461.13;4360516;32;20196;-62
2022/06/16 01:34:32;;;;;;;0.90;0.90;;;;;;;19.96;75.01;95457.72;4337626;32;20189;-62
2022/06/16 01:37:05;;;;;;;1.63;1.07;;;;;;;19.88;75.66;95462.94;4324970;32;20251;-62
2022/06/16 01:39:53;;;;;;;0.93;0.93;;;;;;;19.81;75.80;95465.47;4351891;32;20189;-63
2022/06/16 01:42:57;;;;;;;1.03;1.03;;;;;;;19.85;75.74;95466.34;4350300;32;20193;-62
2022/06/16 01:45:32;;;;;;;3.53;1.27;;;;;;;19.78;75.60;95460.78;4336325;32;20181;-62
2022/06/16 01:47:59;;;;;;;0.97;0.97;;;;;;;19.79;74.68;95464.25;4345288;32;20203;-62
2022/06/16 01:50:34;;;;;;;5.67;2.23;;;;;;;19.72;75.15;95469.47;4344761;32;20210;-61
2022/06/16 01:53:07;;;;;;;1.03;1.03;;;;;;;19.73;75.44;95462.97;4353057;32;20193;-62
2022/06/16 01:55:38;;;;;;;1.23;1.23;;;;;;;19.67;74.63;95462.44;4362808;32;20189;-62
2022/06/16 01:58:15;;;;;;;0.60;0.53;;;;;;;19.76;74.83;95454.94;4348856;32;20181;-63
2022/06/16 02:00:43;;;;;;;2.47;1.23;;;;;;;19.69;75.97;95460.19;4348275;32;20191;-62
2022/06/16 02:03:20;;;;;;;1.37;1.27;;;;;;;19.73;75.24;95462.97;4358774;32;20248;-62
2022/06/16 02:05:51;;;;;;;1.90;1.67;;;;;;;19.76;74.52;95465.72;4354484;32;20199;-62
2022/06/16 02:08:21;;;;;;;1.50;1.43;;;;;;;19.80;74.54;95457.72;4349968;32;20198;-62
2022/06/16 02:10:54;;;;;;;1.67;1.57;;;;;;;19.79;74.45;95451.56;4361144;32;20177;-62
2022/06/16 02:13:25;;;;;;;1.27;0.80;;;;;;;19.68;75.20;95445.16;4357362;32;20189;-62
2022/06/16 02:16:10;;;;;;;0.90;0.90;;;;;;;19.72;74.41;95453.31;4346947;32;20284;-62
2022/06/16 02:18:39;;;;;;;1.57;1.03;;;;;;;19.56;74.92;95440.63;4358607;32;20204;-62
2022/06/16 02:21:21;;;;;;;2.20;1.50;;;;;;;19.70;75.04;95450.97;4357568;32;20184;-63
2022/06/16 02:23:46;;;;;;;1.03;1.03;;;;;;;19.67;74.85;95445.50;4346417;32;20330;-62
2022/06/16 02:26:13;;;;;;;1.07;1.07;;;;;;;19.69;75.03;95449.41;4351202;32;20232;-63
2022/06/16 02:28:44;;;;;;;0.87;0.77;;;;;;;19.57;74.93;95452.19;4335825;32;20201;-62
2022/06/16 02:31:38;;;;;;;1.43;1.40;;;;;;;19.61;75.02;95455.75;4329092;32;20207;-62
2022/06/16 02:34:08;;;;;;;0.87;0.87;;;;;;;19.58;74.95;95448.34;4349574;32;20249;-62
2022/06/16 02:36:33;;;;;;;4.67;1.73;;;;;;;19.72;74.58;95450.63;4353625;32;20257;-62
2022/06/16 02:39:08;;;;;;;0.60;0.60;;;;;;;19.67;74.90;95453.56;4353136;32;20194;-62
2022/06/16 02:41:44;;;;;;;0.67;0.67;;;;;;;19.64;74.67;95455.06;4352228;32;20188;-62
2022/06/16 02:44:44;;;;;;;1.10;1.10;;;;;;;19.67;74.65;95450.87;4355726;32;20193;-62
2022/06/16 02:47:45;;;;;;;2.50;1.57;;;;;;;19.50;74.75;95442.03;4328630;32;20257;-62
2022/06/16 02:50:24;;;;;;;0.70;0.70;;;;;;;19.46;74.73;95440.34;4355275;32;20212;-63
2022/06/16 02:53:08;;;;;;;1.10;1.00;;;;;;;19.52;75.23;95449.75;4342388;32;20203;-62
2022/06/16 02:55:41;;;;;;;0.93;0.93;;;;;;;19.52;75.22;95450.53;4352260;32;20253;-63
2022/06/16 02:58:09;;;;;;;1.50;1.50;;;;;;;19.60;76.23;95451.50;4365290;32;20189;-62
2022/06/16 03:00:39;;;;;;;0.70;0.70;;;;;;;19.59;75.45;95447.22;4359435;32;20268;-62
2022/06/16 03:03:19;;;;;;;0.80;0.80;;;;;;;19.57;75.18;95441.41;4359391;32;20199;-63
2022/06/16 03:05:48;;;;;;;1.33;1.27;;;;;;;19.50;75.32;95435.87;4358223;32;20197;-63
2022/06/16 03:08:14;;;;;;;0.70;0.70;;;;;;;19.39;75.01;95434.78;4360281;32;20193;-62
2022/06/16 03:10:51;;;;;;;1.03;1.00;;;;;;;19.37;75.69;95421.66;4356955;32;20184;-62
2022/06/16 03:13:27;;;;;;;0.80;0.80;;;;;;;19.38;75.72;95417.06;4350465;32;20203;-62
2022/06/16 03:15:55;;;;;;;1.17;1.13;;;;;;;19.37;75.95;95421.66;4356507;32;20426;-62
2022/06/16 03:18:21;;;;;;;0.83;0.83;;;;;;;19.38;76.20;95420.53;4349659;32;20216;-62
2022/06/16 03:20:48;;;;;;;0.50;0.50;;;;;;;19.31;75.26;95416.91;4348260;32;20201;-62
2022/06/16 03:23:13;;;;;;;1.10;1.10;;;;;;;19.35;76.06;95423.13;4356954;32;20192;-62
2022/06/16 03:25:39;;;;;;;1.40;1.27;;;;;;;19.42;75.99;95423.31;4358952;32;20212;-62
2022/06/16 03:28:05;;;;;;;1.10;1.10;;;;;;;19.38;75.71;95422.44;4358941;32;20287;-62
2022/06/16 03:30:33;;;;;;;2.10;1.37;;;;;;;19.41;75.37;95424.44;4360309;32;20235;-63
2022/06/16 03:32:59;;;;;;;0.60;0.60;;;;;;;19.44;75.16;95421.06;4358909;32;20192;-62
2022/06/16 03:35:24;;;;;;;1.37;1.37;;;;;;;19.30;74.64;95426.91;4357777;32;20208;-62
2022/06/16 03:37:50;;;;;;;0.70;0.70;;;;;;;19.41;74.80;95432.53;4365551;32;20215;-62
2022/06/16 03:40:15;;;;;;;0.80;0.80;;;;;;;19.42;75.29;95434.09;4367636;32;20211;-63
2022/06/16 03:42:40;;;;;;;0.80;0.80;;;;;;;19.22;75.35;95431.31;4358118;32;20207;-62
2022/06/16 03:45:07;;;;;;;0.90;0.90;;;;;;;19.30;76.20;95436.88;4361268;32;20201;-62
2022/06/16 03:47:33;;;;;;;1.30;1.03;;;;;;;19.37;74.92;95431.66;4359430;32;20288;-62
2022/06/16 03:49:59;;;;;;;0.70;0.70;;;;;;;19.39;74.92;95437.47;4360447;32;20192;-62
2022/06/16 03:52:26;;;;;;;1.30;1.30;;;;;;;19.37;75.53;95426.28;4371208;32;20196;-62
2022/06/16 03:54:51;;;;;;;0.83;0.83;;;;;;;19.49;75.36;95439.66;4374669;32;20279;-62
2022/06/16 03:57:17;;;;;;;0.83;0.83;;;;;;;19.39;75.19;95440.16;4373597;32;20189;-62
2022/06/16 03:59:42;;;;;;;0.83;0.83;;;;;;;19.47;75.01;95441.91;4371992;32;20228;-62
2022/06/16 04:02:08;;;;;;;1.00;1.00;;;;;;;19.43;75.06;95439.12;4361058;32;20203;-62
2022/06/16 04:04:33;;;;;;;0.80;0.80;;;;;;;19.41;74.71;95435.22;4371141;32;20210;-62
2022/06/16 04:07:00;;;;;;;0.80;0.80;;;;;;;19.36;75.18;95440.84;4376561;32;20226;-62
2022/06/16 04:09:25;;;;;;;1.10;1.10;;;;;;;19.38;74.73;95438.59;4374144;32;20208;-62
2022/06/16 04:11:50;;;;;;;0.97;0.97;;;;;;;19.42;74.67;95440.25;4374283;32;20287;-62
2022/06/16 04:14:16;;;;;;;0.90;0.90;;;;;;;19.46;74.35;95440.34;4374251;32;20233;-63
2022/06/16 04:16:44;;;;;;;1.07;0.80;;;;;;;19.43;75.75;95441.03;4369403;32;20221;-62
2022/06/16 04:19:16;;;;;;;1.03;1.03;;;;;;;19.50;75.05;95449.34;4373112;32;20201;-62
2022/06/16 04:21:44;;;;;;;1.03;1.03;;;;;;;19.49;75.33;95445.03;4374404;32;20207;-62
2022/06/16 04:24:10;;;;;;;3.23;1.53;;;;;;;19.49;74.42;95447.72;4373926;32;20197;-63
2022/06/16 04:26:39;;;;;;;1.00;1.00;;;;;;;19.54;74.87;95448.25;4374641;32;20200;-62
2022/06/16 04:29:06;;;;;;;0.80;0.80;;;;;;;19.51;75.04;95445.50;4360046;32;20244;-63
2022/06/16 04:31:32;;;;;;;1.10;0.90;;;;;;;19.58;75.02;95447.56;4360164;32;20192;-64
2022/06/16 04:33:59;;;;;;;1.20;1.10;;;;;;;19.66;74.86;95443.94;4362648;32;20181;-63
2022/06/16 04:36:26;;;;;;;0.80;0.80;;;;;;;19.66;75.01;95447.41;4371851;32;20193;-62
2022/06/16 04:38:51;;;;;;;0.73;0.73;;;;;;;19.59;74.87;95447.22;4360393;32;20286;-63
2022/06/16 04:41:17;;;;;;;0.60;0.60;;;;;;;19.61;75.71;95447.66;4364139;32;20192;-63
2022/06/16 04:43:43;;;;;;;0.87;0.87;;;;;;;19.64;74.31;95440.81;4371124;32;20244;-62
2022/06/16 04:46:08;;;;;;;0.67;0.67;;;;;;;19.61;74.94;95434.22;4368663;32;20223;-62
2022/06/16 04:48:35;;;;;;;0.93;0.93;;;;;;;19.58;75.52;95432.22;4360026;32;20243;-63
2022/06/16 04:51:02;;;;;;;4.23;1.00;;;;;;;19.45;74.47;95422.63;4359297;32;20204;-62
2022/06/16 04:53:32;;;;;;;1.00;1.00;;;;;;;19.62;75.08;95432.31;4372529;32;20227;-64
2022/06/16 04:56:00;;;;;;;1.57;1.47;;;;;;;19.64;75.12;95441.59;4375807;32;20189;-63
2022/06/16 04:58:29;;;;;;;0.93;0.93;;;;;;;19.65;75.34;95435.09;4373625;32;20189;-62
2022/06/16 05:00:56;;;;;;;1.00;1.00;;;;;;;19.57;74.89;95441.41;4369157;32;20342;-62
2022/06/16 05:03:25;;;;;;;0.90;0.90;;;;;;;19.69;75.04;95444.03;4363291;32;20271;-62
2022/06/16 05:05:51;;;;;;;1.70;1.40;;;;;;;19.63;74.68;95436.56;4371152;32;20249;-62
2022/06/16 05:08:18;;;;;;;1.37;1.37;;;;;;;19.69;74.99;95438.66;4370236;32;20220;-62
2022/06/16 05:10:48;;;;;;;1.00;1.00;;;;;;;19.69;75.58;95448.63;4360036;32;20200;-62
2022/06/16 05:13:14;;;;;;;1.23;0.80;;;;;;;19.72;75.04;95446.03;4360109;32;20281;-62
2022/06/16 05:15:40;;;;;;;1.07;1.00;;;;;;;19.72;74.74;95450.63;4359499;32;20199;-62
2022/06/16 05:18:07;;;;;;;0.87;0.87;;;;;;;19.73;74.70;95455.66;4373715;32;20209;-62
2022/06/16 05:20:33;;;;;;;0.90;0.90;;;;;;;19.79;73.47;95456.16;4373267;32;20331;-62
2022/06/16 05:22:58;;;;;;;0.80;0.80;;;;;;;19.77;74.61;95453.81;4362100;32;20185;-62
2022/06/16 05:25:24;;;;;;;1.00;1.00;;;;;;;19.80;75.03;95457.72;4359873;32;20193;-62
2022/06/16 05:27:49;;;;;;;0.60;0.60;;;;;;;19.84;74.22;95455.91;4366928;32;20215;-62
2022/06/16 05:30:15;;;;;;;0.70;0.70;;;;;;;19.87;74.96;95460.59;4375846;32;20192;-63
2022/06/16 05:32:42;;;;;;;1.40;1.40;;;;;;;19.89;74.44;95459.13;4362884;32;20184;-62
2022/06/16 05:35:10;;;;;;;1.30;1.30;;;;;;;19.94;74.97;95462.69;4368952;32;20227;-62
2022/06/16 05:37:35;;;;;;;1.17;1.00;;;;;;;19.98;75.44;95466.22;4376251;32;20196;-62
2022/06/16 05:40:02;;;;;;;0.90;0.90;;;;;;;20.01;74.94;95460.16;4378612;32;20211;-62
2022/06/16 05:42:27;;;;;;;1.00;1.00;;;;;;;20.05;75.33;95469.09;4376634;32;20265;-62
2022/06/16 05:44:52;;;;;;;2.17;1.03;;;;;;;20.10;74.87;95471.53;4362460;32;20192;-62
2022/06/16 05:47:18;;;;;;;0.70;0.70;;;;;;;20.17;74.62;95466.28;4376418;32;20196;-62
2022/06/16 05:49:44;;;;;;;2.23;1.20;;;;;;;20.27;74.93;95475.75;4362443;32;20328;-62
2022/06/16 05:52:12;;;;;;;1.37;1.07;;;;;;;20.35;74.07;95478.25;4362708;32;20227;-62
2022/06/16 05:54:40;;;;;;;1.27;1.23;;;;;;;20.48;73.39;95476.25;4362449;32;20193;-62
2022/06/16 05:57:08;;;;;;;1.07;1.07;;;;;;;20.56;73.69;95480.66;4367579;32;20213;-62
2022/06/16 05:59:34;;;;;;;1.03;1.03;;;;;;;20.58;73.49;95479.16;4376371;32;20193;-62
2022/06/16 06:02:00;;;;;;;0.97;0.97;;;;;;;20.59;72.60;95482.63;4378440;32;20260;-62
2022/06/16 06:04:25;;;;;;;1.07;1.07;;;;;;;20.63;74.28;95486.19;4365645;32;20228;-62
2022/06/16 06:06:53;;;;;;;0.83;0.83;;;;;;;20.69;70.84;95489.41;4374209;32;20294;-62
2022/06/16 06:17:32;;;;;;;1.47;1.37;;;;;;;20.99;70.83;95498.47;4373981;32;20203;-62
2022/06/16 06:19:57;;;;;;;0.83;0.83;;;;;;;20.99;70.80;95497.72;4377161;32;20188;-62
2022/06/16 06:22:27;;;;;;;1.33;1.23;;;;;;;21.04;73.35;95494.72;4374534;32;20227;-62
2022/06/16 06:24:57;;;;;;;1.17;1.17;;;;;;;21.05;70.34;95496.28;4365181;32;20192;-62
2022/06/16 06:27:42;;;;;;;0.90;0.90;;;;;;;21.14;70.42;95486.06;4361515;32;20279;-62
2022/06/16 06:30:12;;;;;;;1.73;1.60;;;;;;;21.23;71.27;95490.13;4374600;32;20297;-62
2022/06/16 06:32:38;;;;;;;0.90;0.90;;;;;;;21.36;70.56;95498.09;4376209;32;20204;-62
2022/06/16 06:35:04;;;;;;;2.03;1.40;;;;;;;21.45;69.98;95499.41;4361675;32;20254;-62
2022/06/16 06:37:30;;;;;;;0.80;0.80;;;;;;;21.44;70.55;95502.47;4363534;32;20192;-62
2022/06/16 06:39:56;;;;;;;12.37;11.27;;;;;;;21.43;70.36;95498.97;4375322;32;20211;-62
2022/06/16 06:42:22;;;;;;;10.80;9.77;;;;;;;21.39;69.58;95491.97;4361028;32;20283;-62
2022/06/16 06:44:48;;;;;;;2.83;2.53;;;;;;;21.44;69.48;95491.66;4374263;32;20204;-61
2022/06/16 06:47:20;;;;;;;4.73;4.37;;;;;;;21.50;69.75;95498.34;4358586;32;20245;-61
2022/06/16 06:49:46;;;;;;;22.23;18.47;;;;;;;21.63;68.79;95488.91;4374628;32;20295;-61
2022/06/16 06:52:12;;;;;;;2.50;2.10;;;;;;;21.76;68.39;95487.59;4374529;32;20197;-51
2022/06/16 06:54:37;;;;;;;1.53;1.43;;;;;;;21.85;69.49;95488.13;4375696;32;20231;-55
2022/06/16 06:57:03;;;;;;;1.33;1.27;;;;;;;21.70;69.58;95491.75;4374930;32;20239;-50
2022/06/16 06:59:28;;;;;;;1.90;1.47;;;;;;;21.67;69.44;95500.56;4373057;32;20192;-54
2022/06/16 07:01:54;;;;;;;1.93;1.83;;;;;;;21.54;69.53;95507.28;4372142;32;20192;-54
2022/06/16 07:04:20;;;;;;;35.13;23.10;;;;;;;21.60;70.59;95505.84;4344895;32;20249;-50
2022/06/16 07:06:47;;;;;;;2.97;2.63;;;;;;;21.69;69.28;95509.09;4364607;32;20210;-53
2022/06/16 07:09:16;;;;;;;4.23;1.33;;;;;;;21.62;69.84;95508.94;4359074;32;20203;-51
2022/06/16 07:11:41;;;;;;;3.03;1.17;;;;;;;21.64;70.01;95522.88;4372195;32;20189;-50
2022/06/16 07:14:08;;;;;;;1.53;1.50;;;;;;;21.55;70.73;95525.03;4373023;32;20215;-52
2022/06/16 07:16:33;;;;;;;1.00;1.00;;;;;;;21.45;71.28;95525.63;4358753;32;20229;-48
2022/06/16 07:18:59;;;;;;;1.80;1.73;;;;;;;21.46;70.74;95525.25;4363147;32;20205;-55
2022/06/16 07:21:24;;;;;;;1.17;1.17;;;;;;;21.42;70.85;95527.09;4358955;32;20189;-53
2022/06/16 07:23:51;;;;;;;1.57;0.90;;;;;;;21.40;71.42;95523.22;4360029;32;20189;-52
2022/06/16 07:26:17;;;;;;;1.03;0.83;;;;;;;21.45;71.43;95521.00;4374236;32;20262;-51
2022/06/16 07:28:43;;;;;;;2.60;1.53;;;;;;;21.44;71.44;95529.44;4375732;32;20184;-54
2022/06/16 07:31:08;;;;;;;2.03;1.47;;;;;;;21.57;71.19;95530.88;4361817;32;20189;-53
2022/06/16 07:33:35;;;;;;;1.60;1.60;;;;;;;21.57;71.02;95533.56;4374048;32;20180;-53
2022/06/16 07:36:00;;;;;;;1.13;1.13;;;;;;;21.65;71.04;95532.53;4362878;32;20197;-54
2022/06/16 07:38:26;;;;;;;1.30;1.20;;;;;;;21.78;71.29;95517.75;4374795;32;20210;-55
2022/06/16 07:41:31;;;;;;;1.23;1.23;;;;;;;21.71;71.10;95522.22;4366310;32;20299;-55
2022/06/16 07:43:40;;;;;;;1.63;1.37;;;;;;;21.70;71.00;95510.66;4346969;32;20204;-53
2022/06/16 07:46:09;;;;;;;2.83;1.63;;;;;;;21.60;71.29;95501.25;4371765;32;20226;-53
2022/06/16 07:48:35;;;;;;;0.83;0.83;;;;;;;21.55;71.43;95511.53;4359668;32;20255;-54
2022/06/16 07:51:01;;;;;;;1.47;1.40;;;;;;;21.56;71.40;95503.09;4372355;32;20231;-54
2022/06/16 07:53:26;;;;;;;0.63;0.63;;;;;;;21.55;71.47;95503.44;4340500;32;20189;-54
2022/06/16 07:55:52;;;;;;;0.80;0.80;;;;;;;21.54;71.38;95493.78;4358272;32;20292;-55
2022/06/16 07:58:23;;;;;;;0.77;0.77;;;;;;;21.52;71.62;95494.13;4373703;32;20219;-52
2022/06/16 08:00:49;;;;;;;0.77;0.77;;;;;;;21.60;71.43;95492.34;4371699;32;20185;-63
2022/06/16 08:03:17;;;;;;;0.83;0.83;;;;;;;21.78;71.87;95493.44;4359955;32;20232;-62
2022/06/16 08:05:45;;;;;;;1.40;1.30;;;;;;;22.05;70.62;95483.47;4357119;32;20188;-63
2022/06/16 08:08:10;;;;;;;0.80;0.80;;;;;;;22.28;67.58;95488.81;4370746;32;20188;-63
2022/06/16 08:10:36;;;;;;;0.80;0.80;;;;;;;22.43;67.64;95487.91;4374912;32;20226;-63
2022/06/16 08:13:01;;;;;;;0.70;0.70;;;;;;;22.58;67.14;95489.66;4376288;32;20259;-62
2022/06/16 08:15:27;;;;;;;0.70;0.70;;;;;;;22.73;67.17;95485.22;4373706;32;20256;-63
2022/06/16 08:17:55;;;;;;;1.80;1.23;;;;;;;22.87;66.72;95496.22;4361780;32;20192;-63
2022/06/16 08:20:20;;;;;;;1.43;1.43;;;;;;;22.99;65.75;95508.75;4360434;32;20192;-63
2022/06/16 08:22:47;;;;;;;0.70;0.70;;;;;;;23.15;64.85;95501.22;4372394;32;20250;-63
2022/06/16 08:25:15;;;;;;;0.80;0.80;;;;;;;23.35;63.73;95506.47;4373852;32;20229;-63
2022/06/16 08:27:44;;;;;;;0.83;0.83;;;;;;;23.38;63.17;95522.75;4373894;32;20184;-63
2022/06/16 08:30:13;;;;;;;1.57;1.10;;;;;;;23.39;63.13;95516.19;4373877;32;20193;-63
2022/06/16 08:32:39;;;;;;;0.67;0.67;;;;;;;23.34;63.64;95521.16;4360011;32;20203;-63
2022/06/16 08:35:05;;;;;;;0.83;0.83;;;;;;;23.30;63.60;95521.88;4366525;32;20197;-63
2022/06/16 08:37:31;;;;;;;1.40;1.23;;;;;;;23.33;63.24;95527.72;4363425;32;20218;-63
2022/06/16 08:39:56;;;;;;;1.20;1.20;;;;;;;23.37;63.89;95533.97;4360398;32;20192;-62
2022/06/16 08:42:36;;;;;;;0.73;0.73;;;;;;;23.36;63.37;95537.81;4360071;32;20284;-62
2022/06/16 08:45:13;;;;;;;1.17;1.13;;;;;;;23.49;63.40;95547.22;4376455;32;20204;-63
2022/06/16 08:47:58;;;;;;;0.83;0.83;;;;;;;23.66;62.51;95562.16;4373985;32;20211;-63
2022/06/16 08:50:55;;;;;;;1.33;1.33;;;;;;;23.72;59.94;95558.75;4369303;32;20192;-63
2022/06/16 08:53:58;;;;;;;1.63;1.53;;;;;;;23.68;60.68;95555.22;4342359;33;20190;-63
2022/06/16 08:56:35;;;;;;;1.23;1.23;;;;;;;23.73;60.72;95541.31;4342137;32;20244;-63
2022/06/16 08:59:17;;;;;;;0.77;0.77;;;;;;;23.82;60.85;95544.53;4343107;33;20223;-63
2022/06/16 09:02:08;;;;;;;1.10;1.10;;;;;;;23.92;61.09;95546.53;4342506;32;20212;-62
2022/06/16 09:04:40;;;;;;;1.47;0.83;;;;;;;24.02;61.30;95536.97;4349842;32;20215;-63
2022/06/16 09:07:27;;;;;;;6.00;1.27;;;;;;;24.07;62.14;95539.34;4345140;32;20212;-63
2022/06/16 09:10:17;;;;;;;1.47;1.37;;;;;;;24.14;62.16;95538.59;4354030;32;20276;-63
2022/06/16 09:12:45;;;;;;;9.93;1.07;;;;;;;24.22;60.72;95548.38;4341735;32;20239;-62
2022/06/16 09:15:34;;;;;;;1.43;0.93;;;;;;;24.30;60.86;95560.88;4346913;32;20205;-63
2022/06/16 09:18:21;;;;;;;1.37;1.00;;;;;;;24.24;60.61;95554.22;4348268;32;20209;-63
2022/06/16 09:20:49;;;;;;;19.23;1.87;;;;;;;24.32;60.29;95553.09;4354153;32;20212;-62
2022/06/16 09:23:20;;;;;;;1.27;1.00;;;;;;;24.33;60.96;95557.37;4347596;32;20237;-62
2022/06/16 09:26:01;;;;;;;2.20;1.23;;;;;;;24.37;61.12;95558.19;4346486;32;20189;-62
2022/06/16 09:28:37;;;;;;;1.17;1.17;;;;;;;24.43;60.38;95562.12;4357085;32;20185;-62
2022/06/16 09:31:08;;;;;;;1.73;1.63;;;;;;;24.55;60.73;95575.38;4341612;32;20215;-63
2022/06/16 09:33:42;;;;;;;1.47;1.37;;;;;;;24.67;60.55;95577.81;4358703;32;20263;-63
2022/06/16 09:36:28;;;;;;;3.60;1.80;;;;;;;24.73;60.33;95577.47;4342467;32;20202;-63
2022/06/16 09:38:59;;;;;;;1.40;1.20;;;;;;;24.70;59.97;95570.06;4353786;32;20237;-62
2022/06/16 09:44:52;;;;;;;0.77;0.77;;;;;;;24.67;59.12;95566.16;4342625;32;20272;-63
2022/06/16 09:47:26;;;;;;;1.33;1.23;;;;;;;24.65;60.60;95569.25;4330255;32;20186;-63
2022/06/16 09:50:01;;;;;;;1.70;1.57;;;;;;;24.71;60.90;95568.91;4347841;32;20331;-63
2022/06/16 09:52:34;;;;;;;1.33;1.33;;;;;;;24.76;60.40;95572.03;4361489;32;20199;-62
2022/06/16 09:55:17;;;;;;;1.00;1.00;;;;;;;24.66;62.33;95570.03;4373063;32;20212;-62
2022/06/16 09:57:50;;;;;;;0.90;0.90;;;;;;;24.75;61.47;95573.19;4358750;32;20257;-63
2022/06/16 10:00:21;;;;;;;1.47;1.37;;;;;;;24.64;62.07;95581.28;4372376;32;20181;-63
2022/06/16 10:02:53;;;;;;;2.47;0.80;;;;;;;24.70;61.95;95586.34;4361129;32;20196;-63
2022/06/16 10:05:58;;;;;;;1.33;1.07;;;;;;;24.76;62.76;95593.75;4359765;32;20197;-63
2022/06/16 10:08:37;;;;;;;0.80;0.80;;;;;;;24.81;62.47;95587.19;4334784;32;20291;-63
2022/06/16 10:11:30;;;;;;;1.80;1.70;;;;;;;24.97;62.07;95588.47;4359490;32;20197;-64
2022/06/16 10:14:21;;;;;;;0.90;0.90;;;;;;;25.23;62.42;95601.03;4355435;32;20275;-62
2022/06/16 10:16:54;;;;;;;1.87;1.33;;;;;;;25.52;60.25;95595.75;4351546;32;20181;-63
2022/06/16 10:19:26;;;;;;;2.33;0.87;;;;;;;25.53;60.68;95600.03;4359617;32;20219;-63
2022/06/16 10:21:51;;;;;;;1.23;1.13;;;;;;;25.43;59.96;95592.59;4352587;32;25931;-63
2022/06/16 10:24:23;;;;;;;1.37;1.27;;;;;;;25.37;58.89;95596.81;4359351;32;20197;-63
2022/06/16 10:26:48;;;;;;;0.53;0.53;;;;;;;25.27;60.17;95598.34;4355943;32;20200;-63
2022/06/16 10:29:27;;;;;;;1.27;1.27;;;;;;;25.34;59.36;95592.97;4362108;32;20228;-63
2022/06/16 10:31:55;;;;;;;1.00;1.00;;;;;;;25.22;59.51;95602.19;4359511;32;20291;-63
2022/06/16 10:34:29;;;;;;;1.30;1.27;;;;;;;25.10;60.48;95607.19;4360694;32;20250;-63
2022/06/16 10:37:08;;;;;;;1.47;1.40;;;;;;;24.96;60.87;95605.16;4360538;32;20203;-63
2022/06/16 10:39:58;;;;;;;1.20;1.20;;;;;;;24.64;62.16;95608.41;4353390;32;20197;-63
2022/06/16 10:42:33;;;;;;;1.33;1.30;;;;;;;24.38;69.71;95621.34;4363277;32;20189;-63
2022/06/16 10:45:01;;;;;;;0.90;0.90;;;;;;;23.77;75.44;95628.09;4358749;32;20197;-63
2022/06/16 10:47:48;;;;;;;3.37;2.03;;;;;;;23.22;81.18;95633.19;4361087;32;20193;-63
2022/06/16 10:50:40;;;;;;;1.80;1.70;;;;;;;22.87;83.15;95639.66;4360518;32;20192;-64
2022/06/16 10:53:31;;;;;;;2.23;0.93;;;;;;;22.65;84.05;95640.47;4355056;32;20193;-63
2022/06/16 10:56:18;;;;;;;10.37;1.70;;;;;;;22.51;85.46;95624.00;4355114;32;20198;-63
2022/06/16 10:58:51;;;;;;;1.27;1.27;;;;;;;22.61;85.84;95629.59;4358873;32;20188;-63
2022/06/16 11:01:41;;;;;;;1.50;1.50;;;;;;;22.70;85.22;95623.91;4363856;32;20193;-63
2022/06/16 11:04:18;;;;;;;1.70;1.67;;;;;;;22.87;81.58;95619.94;4369939;32;20204;-63
2022/06/16 11:06:52;;;;;;;1.03;1.03;;;;;;;23.11;82.51;95607.91;4358922;32;20196;-63
2022/06/16 11:09:21;;;;;;;1.50;1.40;;;;;;;23.30;79.88;95621.28;4356495;32;20200;-63
2022/06/16 11:11:58;;;;;;;0.90;0.90;;;;;;;23.42;81.49;95612.16;4359209;32;20212;-63
2022/06/16 11:14:40;;;;;;;1.50;1.47;;;;;;;23.57;77.51;95608.50;4360355;32;20215;-63
2022/06/16 11:17:29;;;;;;;1.30;1.30;;;;;;;23.70;77.28;95607.09;4359404;32;20209;-63
2022/06/16 11:20:00;;;;;;;1.53;1.53;;;;;;;23.83;76.99;95616.56;4358685;32;20193;-63
2022/06/16 11:22:34;;;;;;;1.60;1.50;;;;;;;23.98;74.62;95615.53;4360224;32;20204;-63
2022/06/16 11:24:59;;;;;;;1.60;1.13;;;;;;;24.02;75.82;95606.66;4361558;32;20193;-63
2022/06/16 11:27:28;;;;;;;1.23;1.23;;;;;;;24.15;70.30;95599.81;4356793;32;20188;-63
2022/06/16 11:29:55;;;;;;;0.80;0.80;;;;;;;24.28;68.88;95603.84;4359926;32;20189;-62
2022/06/16 11:32:28;;;;;;;0.60;0.60;;;;;;;24.31;68.88;95603.09;4358486;32;20201;-63
2022/06/16 11:34:54;;;;;;;1.13;1.13;;;;;;;24.39;62.52;95599.28;4359079;32;20207;-63
2022/06/16 11:37:39;;;;;;;1.10;1.10;;;;;;;24.48;61.60;95602.47;4359774;32;20184;-62
2022/06/16 11:40:29;;;;;;;1.47;0.90;;;;;;;24.59;62.06;95599.81;4346243;32;20228;-63
2022/06/16 11:43:04;;;;;;;1.63;1.53;;;;;;;24.63;62.99;95606.06;4368345;32;20194;-63
2022/06/16 11:45:45;;;;;;;1.07;1.07;;;;;;;24.68;60.37;95611.16;4371233;32;20196;-63
2022/06/16 11:48:51;;;;;;;1.07;1.00;;;;;;;24.85;60.53;95613.22;4363405;32;20263;-63
2022/06/16 11:51:52;;;;;;;5.60;1.77;;;;;;;24.90;59.30;95614.78;4351635;32;20197;-63
2022/06/16 11:54:36;;;;;;;1.10;1.10;;;;;;;24.88;59.74;95592.66;4357892;32;20204;-63
2022/06/16 11:57:24;;;;;;;1.07;1.07;;;;;;;24.87;60.39;95599.25;4370530;32;20208;-63
2022/06/16 12:00:03;;;;;;;0.90;0.90;;;;;;;24.98;58.27;95592.75;4353757;32;20192;-63
2022/06/16 12:02:59;;;;;;;0.90;0.90;;;;;;;24.90;59.16;95593.06;4358661;32;20193;-63
2022/06/16 12:05:33;;;;;;;1.30;1.20;;;;;;;24.93;56.07;95589.59;4358779;32;20200;-63
2022/06/16 12:08:45;;;;;;;1.50;1.27;;;;;;;25.02;57.14;95578.41;4359469;32;20224;-62
2022/06/16 12:11:31;;;;;;;0.83;0.80;;;;;;;25.25;54.03;95568.84;4342279;32;20188;-63
2022/06/16 12:14:08;;;;;;;1.20;1.20;;;;;;;25.31;53.67;95572.75;4370892;32;20192;-62